Time;durP1;ratioP1;P1;durP2;ratioP2;P2;SDS_P1;SDS_P2;PMS_P1;PMS_P2;Temp;Humidity;BMP_temperature;BMP_pressure;BME280_temperature;BME280_humidity;BME280_pressure;Samples;Min_cycle;Max_cycle;Signal;HPM_P1;HPM_P2
2022/12/11 00:01:49;;;;;;;39.30;19.80;;;;;;;-0.32;87.72;99606.15;102273;1313;95495;-60
2022/12/11 00:04:22;;;;;;;;;;;;;;;-0.33;87.75;99601.63;102253;1310;80648;-59
2022/12/11 00:06:59;;;;;;;41.80;19.50;;;;;;;-0.31;87.86;99604.95;102244;1310;81826;-59
2022/12/11 00:09:33;;;;;;;38.10;18.30;;;;;;;-0.29;87.98;99607.82;102279;1307;97494;-58
2022/12/11 00:12:10;;;;;;;46.30;24.70;;;;;;;-0.28;87.79;99610.36;102242;1306;88561;-58
2022/12/11 00:14:48;;;;;;;52.20;27.90;;;;;;;-0.35;87.80;99614.36;102246;1307;91767;-59
2022/12/11 00:17:25;;;;;;;51.50;25.50;;;;;;;-0.35;88.12;99615.43;102278;1307;80331;-60
2022/12/11 00:19:59;;;;;;;43.40;21.80;;;;;;;-0.37;88.08;99617.62;102254;1307;82123;-59
2022/12/11 00:22:36;;;;;;;45.50;20.70;;;;;;;-0.39;88.13;99614.41;102260;1307;99190;-60
2022/12/11 00:25:11;;;;;;;42.20;21.30;;;;;;;-0.38;88.01;99617.48;102319;1310;88748;-59
2022/12/11 00:27:50;;;;;;;40.30;20.70;;;;;;;-0.41;88.07;99621.81;102257;1306;93835;-60
2022/12/11 00:30:25;;;;;;;44.50;23.20;;;;;;;-0.39;87.95;99619.33;102332;1310;81565;-58
2022/12/11 00:32:58;;;;;;;;;;;;;;;-0.38;88.03;99619.83;102267;1310;81632;-59
2022/12/11 00:35:32;;;;;;;41.80;21.40;;;;;;;-0.35;88.24;99616.85;102302;1307;96858;-57
2022/12/11 00:38:07;;;;;;;47.70;21.70;;;;;;;-0.36;88.12;99611.13;102348;1306;88229;-57
2022/12/11 00:40:44;;;;;;;42.80;20.20;;;;;;;-0.38;88.13;99609.55;102349;1310;93968;-58
2022/12/11 00:43:18;;;;;;;39.10;19.40;;;;;;;-0.40;88.06;99605.54;102349;1308;80013;-58
2022/12/11 00:45:53;;;;;;;39.80;17.90;;;;;;;-0.44;88.21;99609.73;102388;1310;82013;-60
2022/12/11 00:48:31;;;;;;;38.50;18.30;;;;;;;-0.46;88.22;99609.89;102383;1310;97083;-60
2022/12/11 00:51:10;;;;;;;35.70;18.70;;;;;;;-0.47;88.22;99607.56;102316;1310;88168;-60
2022/12/11 00:53:50;;;;;;;37.40;17.30;;;;;;;-0.53;88.02;99606.31;102313;1309;93417;-60
2022/12/11 00:56:25;;;;;;;38.50;19.90;;;;;;;-0.57;87.98;99604.55;102271;1307;79809;-59
2022/12/11 00:59:00;;;;;;;39.90;19.40;;;;;;;-0.62;88.13;99606.41;102255;1307;82177;-57
2022/12/11 01:01:34;;;;;;;39.80;18.80;;;;;;;-0.61;88.20;99605.60;102296;1307;97768;-57
2022/12/11 01:04:09;;;;;;;38.60;19.50;;;;;;;-0.62;88.07;99605.84;102272;1307;88716;-58
2022/12/11 01:06:41;;;;;;;;;;;;;;;-0.59;88.38;99608.64;102266;1307;95317;-57
2022/12/11 01:12:12;;;;;;;;;;;;;;;-0.64;88.19;99613.14;102275;1306;83188;-58
2022/12/11 01:14:49;;;;;;;29.90;15.40;;;;;;;-0.63;88.16;99617.29;102282;1310;97919;-59
2022/12/11 01:17:24;;;;;;;35.20;17.10;;;;;;;-0.67;88.20;99611.13;102265;1307;88801;-60
2022/12/11 01:19:59;;;;;;;33.50;17.70;;;;;;;-0.65;88.17;99609.33;102312;1306;93312;-59
2022/12/11 01:22:34;;;;;;;35.50;17.90;;;;;;;-0.62;88.21;99603.38;102306;1310;81058;-59
2022/12/11 01:25:11;;;;;;;31.60;17.00;;;;;;;-0.57;87.93;99602.09;102320;1310;82014;-58
2022/12/11 01:27:51;;;;;;;35.90;16.90;;;;;;;-0.58;88.06;99599.88;102393;1310;99624;-58
2022/12/11 01:30:27;;;;;;;38.00;18.30;;;;;;;-0.58;88.16;99595.84;102342;1310;87952;-59
2022/12/11 01:33:01;;;;;;;38.60;18.10;;;;;;;-0.64;88.11;99592.63;102330;1306;95102;-59
2022/12/11 01:35:37;;;;;;;34.70;17.40;;;;;;;-0.66;88.16;99583.20;102342;1306;80229;-59
2022/12/11 01:38:13;;;;;;;37.40;18.30;;;;;;;-0.64;88.15;99579.33;102309;1310;81782;-58
2022/12/11 01:40:50;;;;;;;;;;;;;;;-0.67;87.98;99569.39;102330;1310;98444;-58
2022/12/11 01:43:24;;;;;;;32.20;17.00;;;;;;;-0.69;88.18;99563.38;102339;1309;89087;-58
2022/12/11 01:45:58;;;;;;;32.50;17.10;;;;;;;-0.70;88.17;99562.91;102279;1310;95729;-58
2022/12/11 01:48:35;;;;;;;33.10;16.30;;;;;;;-0.75;88.10;99558.95;102281;1310;82108;-58
2022/12/11 01:51:10;;;;;;;28.20;14.70;;;;;;;-0.66;88.06;99556.21;102262;1310;82818;-58
2022/12/11 01:53:45;;;;;;;;;;;;;;;-0.71;87.99;99552.20;102288;1307;97234;-58
2022/12/11 01:56:23;;;;;;;30.10;15.10;;;;;;;-0.71;87.95;99550.16;102285;1307;88122;-58
2022/12/11 01:59:05;;;;;;;24.20;12.70;;;;;;;-0.71;87.82;99551.52;102272;1307;95407;-59
2022/12/11 02:01:44;;;;;;;28.40;15.20;;;;;;;-0.72;87.83;99552.33;102176;1308;78233;-59
2022/12/11 02:04:23;;;;;;;33.50;15.90;;;;;;;-0.74;87.92;99551.08;102292;1307;81570;-59
2022/12/11 02:07:00;;;;;;;27.20;15.10;;;;;;;-0.78;87.84;99546.02;102302;1310;96922;-59
2022/12/11 02:09:37;;;;;;;32.30;16.70;;;;;;;-0.82;87.91;99539.62;102310;1310;88976;-58
2022/12/11 02:12:21;;;;;;;26.40;14.20;;;;;;;-0.83;87.61;99536.36;102319;1306;93695;-58
2022/12/11 02:15:09;;;;;;;28.40;14.50;;;;;;;-0.85;87.64;99532.30;102343;1308;82054;-59
2022/12/11 02:17:49;;;;;;;30.50;16.00;;;;;;;-0.87;87.63;99527.01;102341;1310;80416;-59
2022/12/11 02:20:28;;;;;;;30.80;16.10;;;;;;;-0.89;87.80;99528.96;102344;1307;97724;-60
2022/12/11 02:23:44;;;;;;;33.80;17.40;;;;;;;-0.90;87.99;99526.08;102355;1307;89365;-59
2022/12/11 02:26:38;;;;;;;35.90;18.10;;;;;;;-0.88;87.93;99521.67;102229;1310;95471;-60
2022/12/11 02:29:20;;;;;;;36.10;18.20;;;;;;;-0.89;87.94;99521.00;102326;1310;80939;-60
2022/12/11 02:32:03;;;;;;;36.50;18.70;;;;;;;-0.90;87.93;99524.86;102299;1306;81977;-59
2022/12/11 02:34:46;;;;;;;39.70;20.50;;;;;;;-0.94;87.93;99525.92;102279;1307;97960;-59
2022/12/11 02:37:24;;;;;;;37.20;19.90;;;;;;;-0.91;88.01;99530.08;102317;1306;88800;-59
2022/12/11 02:39:59;;;;;;;39.60;20.70;;;;;;;-0.95;88.01;99526.15;102287;1307;93667;-59
2022/12/11 02:42:42;;;;;;;45.20;23.00;;;;;;;-0.95;87.96;99524.95;102231;1306;80883;-59
2022/12/11 02:45:19;;;;;;;42.80;20.00;;;;;;;-0.97;88.06;99520.17;102303;1306;80910;-57
2022/12/11 02:48:01;;;;;;;43.20;20.60;;;;;;;-0.96;88.12;99512.64;102237;1307;98739;-59
2022/12/11 02:50:41;;;;;;;43.50;21.40;;;;;;;-0.93;88.11;99508.47;102295;1307;88753;-59
2022/12/11 02:53:22;;;;;;;43.10;20.70;;;;;;;-0.92;88.23;99502.79;102205;1310;95754;-60
2022/12/11 02:56:02;;;;;;;46.30;21.00;;;;;;;-0.94;88.24;99505.63;102282;1306;79805;-59
2022/12/11 02:58:44;;;;;;;41.50;19.80;;;;;;;-1.01;88.42;99503.61;102267;1307;81138;-59
2022/12/11 03:01:23;;;;;;;41.60;21.00;;;;;;;-0.97;88.38;99510.30;102295;1306;97162;-60
2022/12/11 03:03:59;;;;;;;45.00;20.90;;;;;;;-0.94;88.29;99506.30;102338;1306;88291;-58
2022/12/11 03:06:43;;;;;;;43.50;20.90;;;;;;;-0.94;88.25;99505.08;102335;1310;95707;-58
2022/12/11 03:09:20;;;;;;;38.70;20.80;;;;;;;-0.88;88.21;99509.64;102328;1307;79637;-58
2022/12/11 03:11:56;;;;;;;49.10;23.30;;;;;;;-0.85;88.39;99509.52;102340;1310;81417;-58
2022/12/11 03:14:30;;;;;;;43.70;20.30;;;;;;;-0.80;88.37;99513.65;102299;1306;98061;-58
2022/12/11 03:17:09;;;;;;;;;;;;;;;-0.82;88.29;99512.24;102280;1307;87927;-58
2022/12/11 03:19:52;;;;;;;40.10;18.80;;;;;;;-0.80;88.39;99514.05;102269;1307;95700;-59
2022/12/11 03:22:39;;;;;;;41.10;20.00;;;;;;;-0.80;88.22;99513.48;102274;1307;80381;-58
2022/12/11 03:25:23;;;;;;;41.50;19.50;;;;;;;-0.79;88.39;99514.95;102245;1307;82714;-58
2022/12/11 03:28:08;;;;;;;31.60;15.50;;;;;;;-0.80;88.45;99517.33;102301;1310;99151;-57
2022/12/11 03:30:45;;;;;;;41.10;18.60;;;;;;;-0.80;88.10;99519.14;102300;1306;87366;-57
2022/12/11 03:33:25;;;;;;;40.80;19.60;;;;;;;-0.79;88.31;99518.48;102286;1307;94497;-58
2022/12/11 03:36:08;;;;;;;42.50;21.10;;;;;;;-0.81;88.27;99522.92;102282;1307;80512;-59
2022/12/11 03:38:49;;;;;;;43.60;20.80;;;;;;;-0.83;88.21;99521.74;102349;1310;82193;-58
2022/12/11 03:41:28;;;;;;;41.60;19.80;;;;;;;-0.87;88.32;99526.00;102319;1306;97091;-58
2022/12/11 03:44:13;;;;;;;43.30;20.30;;;;;;;-0.87;88.19;99523.11;102336;1310;88852;-59
2022/12/11 03:46:50;;;;;;;39.00;17.80;;;;;;;-0.86;88.24;99522.73;102288;1307;95654;-59
2022/12/11 03:49:28;;;;;;;40.50;18.30;;;;;;;-1.05;88.31;99523.94;102320;1310;80802;-59
2022/12/11 03:52:07;;;;;;;35.80;18.10;;;;;;;-1.10;88.21;99527.55;102324;1306;83368;-59
2022/12/11 03:54:45;;;;;;;41.10;19.60;;;;;;;-1.19;88.35;99524.69;102234;1310;99443;-59
2022/12/11 03:57:29;;;;;;;44.30;21.80;;;;;;;-1.22;88.32;99523.16;102299;1307;87186;-59
2022/12/11 04:00:15;;;;;;;47.20;20.40;;;;;;;-1.21;88.42;99522.33;102271;1307;95726;-59
2022/12/11 04:05:39;;;;;;;44.70;20.40;;;;;;;-1.16;88.45;99517.63;102223;1306;83086;-58
2022/12/11 04:08:19;;;;;;;45.60;20.50;;;;;;;-1.18;88.67;99510.92;102281;1306;98358;-59
2022/12/11 04:15:00;;;;;;;46.30;21.50;;;;;;;-1.08;88.60;99501.38;102284;1307;94393;-59
2022/12/11 04:16:41;;;;;;;47.60;21.00;;;;;;;-1.10;88.79;99498.02;102303;1307;79301;-59
2022/12/11 04:25:03;;;;;;;47.50;23.00;;;;;;;-1.09;88.54;99495.33;102295;1307;88977;-58
2022/12/11 04:27:51;;;;;;;47.10;21.50;;;;;;;-1.09;88.74;99496.21;102221;1310;94862;-59
2022/12/11 04:30:27;;;;;;;46.00;22.70;;;;;;;-1.15;88.73;99496.94;102314;1307;81271;-58
2022/12/11 04:33:02;;;;;;;44.60;20.60;;;;;;;-1.13;88.78;99493.16;102366;1307;83056;-58
2022/12/11 04:35:37;;;;;;;43.50;21.80;;;;;;;-1.14;88.69;99493.98;102321;1307;97943;-58
2022/12/11 04:38:11;;;;;;;44.80;21.50;;;;;;;-1.13;88.67;99497.83;102369;1310;88126;-58
2022/12/11 04:40:49;;;;;;;44.50;21.80;;;;;;;-1.12;88.63;99494.02;102317;1308;94619;-58
2022/12/11 04:43:27;;;;;;;47.90;22.90;;;;;;;-1.14;88.56;99489.38;102294;1307;80036;-59
2022/12/11 04:46:09;;;;;;;41.60;21.30;;;;;;;-1.17;88.49;99493.36;102295;1307;82948;-59
2022/12/11 04:48:47;;;;;;;46.10;22.30;;;;;;;-1.19;88.71;99490.87;102279;1312;97676;-59
2022/12/11 04:51:25;;;;;;;43.10;20.70;;;;;;;-1.20;88.49;99490.15;102226;1313;87485;-59
2022/12/11 04:54:01;;;;;;;41.50;21.20;;;;;;;-1.26;88.56;99488.13;102328;1307;93604;-58
2022/12/11 04:56:40;;;;;;;43.80;21.50;;;;;;;-1.26;88.65;99487.27;102177;1310;80216;-57
2022/12/11 04:59:20;;;;;;;41.30;21.40;;;;;;;-1.24;88.67;99485.70;102263;1310;81418;-57
2022/12/11 05:01:54;;;;;;;41.80;20.30;;;;;;;-1.29;88.64;99480.52;102305;1310;96659;-57
2022/12/11 05:04:33;;;;;;;37.30;18.90;;;;;;;-1.33;88.54;99471.02;102272;1310;88202;-58
2022/12/11 05:07:09;;;;;;;38.80;20.20;;;;;;;-1.32;88.55;99464.36;102298;1307;93439;-58
2022/12/11 05:09:46;;;;;;;36.30;18.50;;;;;;;-1.31;88.45;99462.98;102291;1306;79082;-58
2022/12/11 05:12:22;;;;;;;38.70;19.30;;;;;;;-1.34;88.45;99458.70;102284;1307;82842;-59
2022/12/11 05:14:56;;;;;;;44.50;20.70;;;;;;;-1.41;88.52;99457.23;102347;1307;97070;-58
2022/12/11 05:17:34;;;;;;;41.90;20.10;;;;;;;-1.37;88.31;99452.11;102335;1310;88216;-59
2022/12/11 05:20:11;;;;;;;44.00;20.50;;;;;;;-1.34;88.64;99450.09;102337;1307;93738;-57
2022/12/11 05:22:46;;;;;;;42.80;22.00;;;;;;;-1.35;88.51;99443.45;102347;1310;79479;-57
2022/12/11 05:25:23;;;;;;;40.20;18.90;;;;;;;-1.40;88.38;99441.20;102292;1307;83367;-58
2022/12/11 05:27:58;;;;;;;39.30;21.80;;;;;;;-1.41;88.40;99433.93;102341;1307;97041;-58
2022/12/11 05:30:33;;;;;;;40.00;20.50;;;;;;;-1.41;88.62;99431.61;102285;1310;89000;-62
2022/12/11 05:33:08;;;;;;;42.50;21.90;;;;;;;-1.41;88.48;99432.87;101878;1307;542747;-58
2022/12/11 05:35:46;;;;;;;;;;;;;;;-1.43;88.58;99423.72;102278;1307;80467;-58
2022/12/11 05:38:23;;;;;;;38.70;19.30;;;;;;;-1.46;88.62;99426.23;102252;1310;82267;-57
2022/12/11 05:41:05;;;;;;;38.70;20.10;;;;;;;-1.45;88.47;99426.73;102233;1307;96705;-57
2022/12/11 05:43:41;;;;;;;41.60;21.50;;;;;;;-1.46;88.48;99425.00;102259;1310;87646;-58
2022/12/11 05:46:23;;;;;;;40.20;19.70;;;;;;;-1.44;88.38;99421.33;102229;1307;95116;-59
2022/12/11 05:49:03;;;;;;;41.20;20.50;;;;;;;-1.51;88.55;99417.38;102302;1310;81017;-58
2022/12/11 05:51:38;;;;;;;36.80;20.50;;;;;;;-1.58;88.56;99411.79;102295;1307;82265;-58
2022/12/11 05:54:12;;;;;;;39.20;20.40;;;;;;;-1.60;88.52;99412.33;102313;1307;97434;-58
2022/12/11 05:56:50;;;;;;;37.10;19.50;;;;;;;-1.58;88.72;99409.70;102310;1306;87313;-59
2022/12/11 05:59:26;;;;;;;38.30;20.50;;;;;;;-1.63;88.62;99408.41;102294;1310;94364;-58
2022/12/11 06:02:03;;;;;;;39.60;19.30;;;;;;;-1.61;88.69;99404.35;102331;1310;78605;-57
2022/12/11 06:04:37;;;;;;;39.60;20.60;;;;;;;-1.61;88.50;99408.34;102422;1307;80186;-57
2022/12/11 06:07:12;;;;;;;39.50;20.20;;;;;;;-1.61;88.49;99405.00;102313;1310;98551;-57
2022/12/11 06:09:47;;;;;;;;;;;;;;;-1.65;88.72;99403.63;102323;1307;86706;-58
2022/12/11 06:12:21;;;;;;;37.90;20.10;;;;;;;-1.66;88.46;99405.34;102289;1307;96754;-58
2022/12/11 06:14:56;;;;;;;41.50;21.30;;;;;;;-1.72;88.61;99405.66;102278;1310;80359;-58
2022/12/11 06:17:31;;;;;;;37.80;19.90;;;;;;;-1.71;88.46;99408.09;102301;1310;81750;-57
2022/12/11 06:20:09;;;;;;;29.80;16.60;;;;;;;-1.72;88.74;99409.23;102303;1306;99112;-56
2022/12/11 06:22:43;;;;;;;24.30;14.10;;;;;;;-1.75;88.57;99404.83;102307;1310;88662;-56
2022/12/11 06:25:21;;;;;;;31.20;16.30;;;;;;;-1.74;88.64;99407.80;102289;1310;92181;-57
2022/12/11 06:27:58;;;;;;;26.90;16.20;;;;;;;-1.74;88.66;99408.17;102219;1310;79284;-58
2022/12/11 06:30:35;;;;;;;23.70;13.10;;;;;;;-1.73;88.55;99410.34;102309;1307;81259;-58
2022/12/11 06:33:09;;;;;;;26.80;15.40;;;;;;;-1.76;88.44;99415.58;102325;1310;98545;-59
2022/12/11 06:35:44;;;;;;;26.90;14.60;;;;;;;-1.76;88.51;99410.48;102318;1307;89490;-59
2022/12/11 06:38:17;;;;;;;;;;;;;;;-1.81;88.60;99410.52;102348;1307;94136;-57
2022/12/11 06:40:58;;;;;;;27.10;15.70;;;;;;;-1.82;88.51;99406.04;102304;1308;81396;-57
2022/12/11 06:43:33;;;;;;;27.10;15.40;;;;;;;-1.84;88.53;99411.08;102315;1306;81765;-58
2022/12/11 06:46:11;;;;;;;31.00;16.30;;;;;;;-1.84;88.53;99409.32;102304;1306;99332;-57
2022/12/11 06:48:46;;;;;;;31.70;17.40;;;;;;;-1.82;88.54;99414.15;102288;1310;88547;-60
2022/12/11 06:51:24;;;;;;;33.20;18.30;;;;;;;-1.82;88.46;99411.98;102295;1310;94532;-59
2022/12/11 06:53:59;;;;;;;29.50;16.20;;;;;;;-1.80;88.47;99415.29;102241;1310;80863;-58
2022/12/11 06:56:36;;;;;;;32.40;17.80;;;;;;;-1.78;88.65;99416.95;102321;1307;81779;-59
2022/12/11 06:59:14;;;;;;;31.60;17.70;;;;;;;-1.83;88.70;99416.67;102309;1310;97778;-57
2022/12/11 07:01:49;;;;;;;31.80;18.60;;;;;;;-1.86;88.67;99418.86;102278;1310;87170;-57
2022/12/11 07:04:29;;;;;;;98.90;44.00;;;;;;;-1.83;88.58;99417.75;102293;1307;92499;-57
2022/12/11 07:07:03;;;;;;;32.40;18.30;;;;;;;-1.83;88.59;99416.67;102269;1306;81329;-57
2022/12/11 07:09:42;;;;;;;35.80;19.80;;;;;;;-1.88;88.58;99414.60;102283;1307;81676;-57
2022/12/11 07:12:17;;;;;;;31.20;17.70;;;;;;;-1.89;88.51;99410.49;102311;1307;97163;-57
2022/12/11 07:14:51;;;;;;;38.50;22.30;;;;;;;-1.89;88.46;99406.83;102308;1307;87757;-58
2022/12/11 07:17:23;;;;;;;;;;;;;;;-1.94;88.27;99408.50;102309;1307;95628;-59
2022/12/11 07:20:00;;;;;;;26.20;15.30;;;;;;;-2.01;88.39;99410.71;102313;1307;78186;-58
2022/12/11 07:22:35;;;;;;;26.70;15.30;;;;;;;-2.05;88.31;99408.21;102323;1310;82918;-59
2022/12/11 07:25:11;;;;;;;24.50;13.70;;;;;;;-2.07;88.37;99407.70;102368;1306;98312;-57
2022/12/11 07:27:49;;;;;;;26.10;14.10;;;;;;;-2.09;88.38;99404.22;102356;1310;88046;-57
2022/12/11 07:30:24;;;;;;;22.60;12.50;;;;;;;-2.09;88.21;99400.66;102279;1310;92685;-58
2022/12/11 07:32:59;;;;;;;22.30;13.40;;;;;;;-2.11;88.28;99396.73;102305;1310;78907;-58
2022/12/11 07:35:37;;;;;;;22.10;12.10;;;;;;;-2.13;88.20;99393.92;102264;1310;82773;-58
2022/12/11 07:38:16;;;;;;;20.20;11.10;;;;;;;-2.16;88.23;99386.77;102308;1310;97163;-59
2022/12/11 07:40:52;;;;;;;21.20;11.70;;;;;;;-2.18;88.26;99385.40;102219;1310;89300;-59
2022/12/11 07:43:28;;;;;;;21.70;12.60;;;;;;;-2.19;88.36;99383.02;102270;1310;95434;-58
2022/12/11 07:46:08;;;;;;;20.00;11.80;;;;;;;-2.16;88.53;99380.48;102294;1306;80284;-59
2022/12/11 07:48:44;;;;;;;22.80;11.60;;;;;;;-2.12;88.46;99379.05;102242;1310;84523;-57
2022/12/11 07:51:25;;;;;;;19.90;11.50;;;;;;;-2.13;88.40;99375.44;102316;1310;98765;-57
2022/12/11 07:54:05;;;;;;;21.90;12.30;;;;;;;-2.14;88.27;99373.58;102311;1310;87125;-57
2022/12/11 07:56:40;;;;;;;21.50;11.80;;;;;;;-2.18;88.22;99368.83;102301;1310;92815;-58
2022/12/11 07:59:15;;;;;;;22.10;11.30;;;;;;;-2.20;88.23;99368.65;102301;1306;78623;-58
2022/12/11 08:01:50;;;;;;;21.90;12.00;;;;;;;-2.19;88.15;99368.93;102260;1306;83668;-61
2022/12/11 08:04:24;;;;;;;23.60;13.00;;;;;;;-2.18;88.37;99372.34;102341;1310;96317;-58
2022/12/11 08:07:01;;;;;;;26.20;13.80;;;;;;;-2.16;88.26;99375.31;102338;1306;88379;-58
2022/12/11 08:09:36;;;;;;;21.80;12.40;;;;;;;-2.09;88.21;99376.67;102355;1307;95026;-59
2022/12/11 08:12:10;;;;;;;20.80;11.70;;;;;;;-2.12;88.02;99372.69;102306;1308;81298;-59
2022/12/11 08:14:45;;;;;;;22.00;12.70;;;;;;;-2.11;88.13;99367.51;102313;1307;81404;-57
2022/12/11 08:17:23;;;;;;;22.40;12.80;;;;;;;-2.06;87.97;99369.20;102303;1307;99647;-57
2022/12/11 08:20:00;;;;;;;24.00;13.50;;;;;;;-2.12;88.02;99368.07;102330;1310;88597;-57
2022/12/11 08:22:35;;;;;;;24.50;13.20;;;;;;;-2.10;87.99;99370.27;102221;1310;95037;-57
2022/12/11 08:25:11;;;;;;;23.30;13.00;;;;;;;-2.15;88.14;99363.65;102295;1310;77894;-57
2022/12/11 08:27:45;;;;;;;25.40;14.50;;;;;;;-2.18;87.89;99363.40;102268;1310;81842;-57
2022/12/11 08:30:20;;;;;;;25.30;13.90;;;;;;;-2.18;87.93;99361.26;102291;1310;97400;-58
2022/12/11 08:32:56;;;;;;;28.50;14.50;;;;;;;-2.17;87.94;99359.72;102250;1310;89305;-59
2022/12/11 08:35:31;;;;;;;26.60;13.70;;;;;;;-2.18;88.03;99353.81;102289;1306;95542;-60
2022/12/11 08:38:10;;;;;;;22.70;12.30;;;;;;;-2.15;88.02;99351.27;102231;1306;81116;-58
2022/12/11 08:40:44;;;;;;;27.00;13.10;;;;;;;-2.12;88.01;99350.47;102243;1307;81792;-58
2022/12/11 08:43:20;;;;;;;23.80;13.30;;;;;;;-2.14;88.09;99350.59;102281;1306;98638;-58
2022/12/11 08:45:56;;;;;;;21.60;11.90;;;;;;;-2.16;88.23;99347.64;102243;1310;86677;-59
2022/12/11 08:48:36;;;;;;;21.60;10.70;;;;;;;-2.22;88.05;99347.15;102362;1310;95788;-59
2022/12/11 08:51:18;;;;;;;22.90;12.30;;;;;;;-2.22;88.14;99345.04;102366;1310;80342;-59
2022/12/11 08:54:00;;;;;;;22.40;11.90;;;;;;;-2.16;87.90;99349.56;102240;1312;82562;-58
2022/12/11 08:56:40;;;;;;;21.20;11.30;;;;;;;-2.14;87.79;99344.81;102310;1307;99325;-58
2022/12/11 08:59:18;;;;;;;20.10;10.60;;;;;;;-2.09;87.96;99347.41;102315;1306;87808;-57
2022/12/11 09:01:58;;;;;;;21.60;11.40;;;;;;;-2.09;87.77;99345.13;102163;1312;97506;-58
2022/12/11 09:10:23;;;;;;;19.60;11.40;;;;;;;-2.01;87.60;99338.91;98776;1355;601422;-63
2022/12/11 09:12:58;;;;;;;18.00;9.90;;;;;;;-2.13;87.55;99327.45;101538;1320;78652;-62
2022/12/11 09:15:33;;;;;;;19.30;10.50;;;;;;;-2.15;87.63;99324.14;101504;1319;82761;-62
2022/12/11 09:18:09;;;;;;;19.80;10.60;;;;;;;-2.18;87.34;99317.70;101497;1317;95732;-61
2022/12/11 09:20:43;;;;;;;19.90;11.20;;;;;;;-2.20;87.41;99320.31;101465;1320;88747;-63
2022/12/11 09:23:20;;;;;;;20.20;10.70;;;;;;;-2.17;87.33;99317.04;101139;1320;521277;-60
2022/12/11 09:25:57;;;;;;;16.60;10.00;;;;;;;-2.17;87.37;99316.73;101645;1320;79374;-59
2022/12/11 09:28:36;;;;;;;20.60;11.10;;;;;;;-2.17;87.46;99308.21;101648;1316;83575;-62
2022/12/11 09:31:23;;;;;;;20.70;11.50;;;;;;;-2.17;87.51;99294.14;101670;1316;95128;-63
2022/12/11 09:34:00;;;;;;;19.10;11.00;;;;;;;-2.15;87.68;99291.48;101666;1316;86815;-62
2022/12/11 09:36:38;;;;;;;18.50;11.50;;;;;;;-2.11;87.44;99291.66;101686;1320;95841;-63
2022/12/11 09:39:15;;;;;;;19.50;11.10;;;;;;;-2.05;87.32;99289.19;101648;1320;80492;-57
2022/12/11 09:42:02;;;;;;;20.00;11.50;;;;;;;-2.00;87.67;99283.25;101670;1319;82499;-57
2022/12/11 09:44:42;;;;;;;18.90;10.70;;;;;;;-2.01;87.45;99276.98;101662;1317;94923;-60
2022/12/11 09:47:32;;;;;;;20.30;11.00;;;;;;;-1.95;87.45;99274.68;101666;1317;89481;-63
2022/12/11 09:50:21;;;;;;;18.90;11.20;;;;;;;-1.93;87.53;99265.62;101664;1320;95024;-62
2022/12/11 09:53:19;;;;;;;17.90;10.50;;;;;;;-1.94;87.55;99260.27;101668;1316;80954;-62
2022/12/11 09:56:01;;;;;;;18.20;11.20;;;;;;;-1.94;87.53;99258.38;101695;1317;83444;-62
2022/12/11 09:58:48;;;;;;;19.60;11.30;;;;;;;-1.84;87.44;99259.40;101807;1317;97635;-61
2022/12/11 10:01:35;;;;;;;20.70;11.40;;;;;;;-1.85;87.52;99250.80;101818;1318;88150;-61
2022/12/11 10:04:33;;;;;;;31.30;17.80;;;;;;;-1.84;87.65;99252.50;101809;1317;93247;-59
2022/12/11 10:07:18;;;;;;;54.90;30.00;;;;;;;-1.95;87.67;99250.83;101758;1317;80024;-60
2022/12/11 10:10:03;;;;;;;62.00;37.20;;;;;;;-1.91;87.56;99255.28;101665;1316;81050;-60
2022/12/11 10:12:52;;;;;;;59.00;36.60;;;;;;;-1.94;87.40;99243.92;101659;1320;97832;-60
2022/12/11 10:15:39;;;;;;;43.20;26.60;;;;;;;-1.96;87.41;99241.61;101768;1314;88820;-62
2022/12/11 10:18:20;;;;;;;31.50;20.60;;;;;;;-1.95;87.58;99239.73;101748;1318;96666;-60
2022/12/11 10:20:55;;;;;;;41.20;26.00;;;;;;;-1.94;87.29;99239.81;101733;1317;78980;-60
2022/12/11 10:23:36;;;;;;;36.60;23.20;;;;;;;-1.91;87.36;99235.62;101751;1316;81793;-60
2022/12/11 10:26:16;;;;;;;29.00;16.70;;;;;;;-1.90;87.50;99232.44;101737;1314;97538;-62
2022/12/11 10:28:55;;;;;;;39.00;23.00;;;;;;;-1.90;87.55;99225.73;101748;1314;89330;-61
2022/12/11 10:31:45;;;;;;;28.90;16.30;;;;;;;-1.86;87.81;99225.00;101798;1317;94356;-61
2022/12/11 10:34:32;;;;;;;25.70;14.30;;;;;;;-1.88;87.66;99219.64;101741;1317;81710;-61
2022/12/11 10:37:10;;;;;;;270.80;194.00;;;;;;;-1.87;87.65;99218.54;101757;1316;82491;-62
2022/12/11 10:39:49;;;;;;;29.70;18.10;;;;;;;-1.85;87.56;99214.07;101816;1317;96064;-61
2022/12/11 10:42:25;;;;;;;20.60;12.10;;;;;;;-1.88;87.57;99213.71;101783;1314;87943;-60
2022/12/11 10:45:05;;;;;;;22.90;12.20;;;;;;;-1.85;87.53;99210.45;101799;1317;95323;-63
2022/12/11 10:47:39;;;;;;;29.30;17.00;;;;;;;-1.86;87.29;99207.34;101767;1317;81144;-62
2022/12/11 10:50:26;;;;;;;;;;;;;;;-1.86;87.36;99203.66;101747;1317;82742;-63
2022/12/11 10:53:00;;;;;;;22.40;13.70;;;;;;;-1.95;87.38;99197.59;101770;1317;95420;-63
2022/12/11 10:55:45;;;;;;;23.50;14.20;;;;;;;-1.90;87.24;99191.50;101730;1317;87596;-63
2022/12/11 10:58:22;;;;;;;21.70;11.60;;;;;;;-1.84;87.20;99176.94;101726;1316;95493;-63
2022/12/11 11:01:13;;;;;;;23.80;13.50;;;;;;;-1.84;87.13;99171.18;101720;1314;78890;-62
2022/12/11 11:04:03;;;;;;;34.70;21.00;;;;;;;-1.90;87.28;99166.78;101740;1317;83222;-64
2022/12/11 11:06:39;;;;;;;24.00;13.40;;;;;;;-1.91;87.24;99160.35;101713;1318;97218;-62
2022/12/11 11:09:36;;;;;;;28.60;16.70;;;;;;;-1.96;87.15;99155.02;101733;1314;87165;-62
2022/12/11 11:12:25;;;;;;;23.20;13.80;;;;;;;-1.99;87.15;99151.91;101727;1314;95638;-61
2022/12/11 11:15:12;;;;;;;23.50;14.10;;;;;;;-2.01;87.27;99152.16;101732;1314;80736;-61
2022/12/11 11:17:53;;;;;;;27.20;16.30;;;;;;;-1.93;87.35;99147.64;101647;1318;83603;-61
2022/12/11 11:20:31;;;;;;;32.70;20.80;;;;;;;-1.87;87.21;99146.58;101802;1316;95535;-60
2022/12/11 11:23:12;;;;;;;28.00;15.80;;;;;;;-1.86;87.25;99142.03;101793;1317;89215;-62
2022/12/11 11:25:56;;;;;;;23.20;14.70;;;;;;;-1.82;87.38;99138.80;101766;1313;94467;-61
2022/12/11 11:28:36;;;;;;;20.80;12.50;;;;;;;-1.74;87.66;99135.00;101736;1314;79491;-61
2022/12/11 11:31:18;;;;;;;21.30;12.30;;;;;;;-1.78;87.43;99129.13;101784;1316;81503;-61
2022/12/11 11:33:59;;;;;;;25.70;14.10;;;;;;;-1.80;87.61;99129.63;101658;1317;98643;-60
2022/12/11 11:36:37;;;;;;;25.30;15.90;;;;;;;-1.79;87.62;99126.40;101735;1314;87243;-61
2022/12/11 11:39:34;;;;;;;25.30;15.40;;;;;;;-1.79;87.53;99124.98;101744;1317;96156;-62
2022/12/11 11:42:19;;;;;;;25.30;13.40;;;;;;;-1.70;87.64;99121.02;101729;1313;81225;-63
2022/12/11 11:45:05;;;;;;;22.10;13.50;;;;;;;-1.59;87.47;99119.80;101701;1316;81481;-63
2022/12/11 11:47:49;;;;;;;23.50;15.00;;;;;;;-1.61;87.40;99118.91;101696;1317;96228;-63
2022/12/11 11:50:36;;;;;;;23.20;13.50;;;;;;;-1.64;87.42;99116.89;101742;1317;88686;-63
2022/12/11 11:53:21;;;;;;;22.50;13.80;;;;;;;-1.68;87.34;99118.39;101738;1317;94759;-65
2022/12/11 11:56:12;;;;;;;23.30;13.20;;;;;;;-1.72;87.37;99113.95;101768;1314;78553;-62
2022/12/11 11:58:58;;;;;;;22.70;13.90;;;;;;;-1.76;87.25;99116.61;101715;1316;79202;-61
2022/12/11 12:01:32;;;;;;;20.90;13.10;;;;;;;-1.85;87.03;99110.02;101796;1317;96854;-61
2022/12/11 12:04:06;;;;;;;;;;;;;;;-1.88;87.13;99113.29;101773;1314;87949;-65
2022/12/11 12:07:05;;;;;;;23.60;13.60;;;;;;;-1.92;86.99;99112.83;101778;1317;94864;-65
2022/12/11 12:09:54;;;;;;;24.70;14.90;;;;;;;-1.93;87.07;99113.74;101752;1316;81181;-64
2022/12/11 12:12:41;;;;;;;25.00;13.60;;;;;;;-1.91;87.09;99112.21;101861;1317;81861;-64
2022/12/11 12:15:38;;;;;;;22.50;14.10;;;;;;;-1.89;87.30;99112.65;101839;1313;97972;-68
2022/12/11 12:18:32;;;;;;;21.10;12.40;;;;;;;-1.89;87.16;99111.13;101818;1313;88361;-62
2022/12/11 12:21:19;;;;;;;24.40;14.10;;;;;;;-1.91;87.22;99110.77;101821;1317;95267;-61
2022/12/11 12:24:12;;;;;;;26.50;15.80;;;;;;;-1.91;87.12;99105.98;101848;1313;82138;-61
2022/12/11 12:27:00;;;;;;;22.20;13.40;;;;;;;-1.88;87.06;99109.64;101843;1313;81817;-62